Latest Coastal Weather Observations for Adele Island

IDW60701

Issued at 4:42 pm WST Wednesday 24 August 2016 (issued every 10 minutes, with the page automatically refreshed every 10 minutes)

About coastal observations | Map of coastal stations | Coastal observations for WA | Marine services | Other Formats
Station Details ID: 200735 Name: ADELE ISLAND Lat: -15.51 Lon: 123.16 Height: 4.6 m
Data from the previous 72 hours. | See also: Recent months at Adele Island
Date/Time
WST
Temp
°C
Wind Pressure Rain since
9am
mm
Weather Cloud Vis
km
Sea
Height
m
Swell
Dir  Spd
kts
Gust
kts
hPa Trend Height
m
Period
s
Dir
24/04:30pm - SSE 10 13 1010.4 - - - - - - - - -
24/04:00pm - SSE 11 15 1010.1 - - - - - - - - -
24/03:30pm - SE 10 13 1010.0 - - - - - - - - -
24/03:00pm - SE 10 13 1010.0 - - - - - - - - -
24/02:30pm - SE 10 13 1010.2 - - - - - - - - -
24/02:00pm - ESE 9 12 1010.4 - - - - - - - - -
24/01:30pm - ESE 10 13 1010.7 - - - - - - - - -
24/01:00pm - ESE 11 13 1011.2 - - - - - - - - -
24/12:30pm - ESE 12 14 1011.4 - - - - - - - - -
24/12:00pm - ESE 12 15 1011.8 - - - - - - - - -
24/11:30am - ESE 13 17 1012.0 - - - - - - - - -
24/11:00am - ESE 14 17 1012.2 - - - - - - - - -
24/10:30am - ESE 13 17 1012.5 - - - - - - - - -
24/10:00am - ESE 14 18 1012.9 - - - - - - - - -
24/09:30am - SE 13 16 1013.2 - - - - - - - - -
24/09:00am - ESE 14 17 1013.4 - - - - - - - - -
24/08:30am - ESE 11 15 1013.3 - - - - - - - - -
24/08:00am - ESE 11 14 1013.1 - - - - - - - - -
24/07:30am - SE 11 15 1012.9 - - - - - - - - -
24/07:00am - SE 11 14 1012.7 - - - - - - - - -
24/06:30am - SSE 13 15 1012.5 - - - - - - - - -
24/06:00am - SSE 13 16 1012.3 - - - - - - - - -
24/05:30am - SSE 14 17 1012.1 - - - - - - - - -
24/05:00am - SE 13 15 1011.7 - - - - - - - - -
24/04:30am - SSE 11 13 1011.3 - - - - - - - - -
24/04:00am - S 10 12 1011.1 - - - - - - - - -
24/03:30am - S 10 12 1010.9 - - - - - - - - -
24/03:00am - S 12 17 1010.8 - - - - - - - - -
24/02:30am - S 9 17 1010.6 - - - - - - - - -
24/02:00am - S 8 9 1010.6 - - - - - - - - -
24/01:30am - SSW 8 8 1010.6 - - - - - - - - -
24/01:00am - SSW 7 9 1010.5 - - - - - - - - -
24/12:30am - SSW 8 9 1010.6 - - - - - - - - -
24/12:00am - SSW 7 8 1010.6 - - - - - - - - -
 
Date/Time
WST
Temp
°C
Wind Pressure Rain since
9am
mm
Weather Cloud Vis
km
Sea
Height
m
Swell
Dir  Spd
kts
Gust
kts
hPa Trend Height
m
Period
s
Dir
23/11:30pm - SSW 7 9 1010.7 - - - - - - - - -
23/11:00pm - SSW 8 9 1010.8 - - - - - - - - -
23/10:30pm - SSW 7 8 1010.9 - - - - - - - - -
23/10:00pm - S 7 8 1010.9 - - - - - - - - -
23/09:30pm - S 7 9 1010.8 - - - - - - - - -
23/09:00pm - S 7 8 1010.6 - - - - - - - - -
23/08:30pm - S 7 8 1010.6 - - - - - - - - -
23/08:00pm - S 7 8 1010.5 - - - - - - - - -
23/07:30pm - S 6 7 1010.4 - - - - - - - - -
23/07:00pm - SSE 6 6 1010.2 - - - - - - - - -
23/06:30pm - SSE 6 7 1009.9 - - - - - - - - -
23/06:00pm - SSE 5 6 1009.6 - - - - - - - - -
23/05:30pm - S 7 9 1009.5 - - - - - - - - -
23/05:00pm - SSE 9 11 1009.4 - - - - - - - - -
23/04:30pm - SSE 10 13 1009.3 - - - - - - - - -
23/04:00pm - SSE 11 15 1009.1 - - - - - - - - -
23/03:30pm - SSE 11 14 1008.9 - - - - - - - - -
23/03:00pm - SSE 12 14 1008.9 - - - - - - - - -
23/02:30pm - SSE 11 15 1009.1 - - - - - - - - -
23/02:00pm - SSE 11 15 1009.2 - - - - - - - - -
23/01:30pm - SE 13 16 1009.4 - - - - - - - - -
23/01:00pm - SE 12 18 1009.7 - - - - - - - - -
23/12:30pm - SSE 14 17 1010.0 - - - - - - - - -
23/12:00pm - SE 15 18 1010.4 - - - - - - - - -
23/11:30am - SE 15 18 1010.7 - - - - - - - - -
23/11:00am - SE 18 23 1011.0 - - - - - - - - -
23/10:30am - SSE 18 23 1011.5 - - - - - - - - -
23/10:00am - SSE 19 23 1011.7 - - - - - - - - -
23/09:30am - SSE 20 25 1011.9 - - - - - - - - -
23/09:00am - SSE 19 23 1011.8 - - - - - - - - -
23/08:30am - S 21 25 1011.5 - - - - - - - - -
23/08:00am - S 18 23 1011.4 - - - - - - - - -
23/07:30am - S 15 19 1011.4 - - - - - - - - -
23/07:00am - SW 14 17 1011.1 - - - - - - - - -
23/06:30am - SSW 14 18 1010.9 - - - - - - - - -
23/06:00am - SW 16 20 1010.6 - - - - - - - - -
23/05:30am - SW 15 19 1010.4 - - - - - - - - -
23/05:00am - S 12 16 1010.2 - - - - - - - - -
23/04:30am - SSW 12 17 1010.0 - - - - - - - - -
23/04:00am - SSE 7 8 1010.0 - - - - - - - - -
23/03:30am - S 10 13 1009.9 - - - - - - - - -
23/03:00am - SSW 11 15 1009.6 - - - - - - - - -
23/02:30am - SSW 11 16 1009.5 - - - - - - - - -
23/02:00am - SSW 10 13 1009.4 - - - - - - - - -
23/01:30am - SW 13 20 1009.4 - - - - - - - - -
23/01:00am - SW 15 19 1009.6 - - - - - - - - -
23/12:30am - SW 16 19 1009.8 - - - - - - - - -
23/12:00am - SW 17 22 1010.0 - - - - - - - - -
 
Date/Time
WST
Temp
°C
Wind Pressure Rain since
9am
mm
Weather Cloud Vis
km
Sea
Height
m
Swell
Dir  Spd
kts
Gust
kts
hPa Trend Height
m
Period
s
Dir
22/11:30pm - SW 15 19 1010.2 - - - - - - - - -
22/11:00pm - SSW 15 18 1010.2 - - - - - - - - -
22/10:30pm - SW 14 18 1010.2 - - - - - - - - -
22/10:00pm - SW 14 17 1010.4 - - - - - - - - -
22/09:30pm - SSW 14 17 1010.5 - - - - - - - - -
22/09:00pm - SW 14 17 1010.5 - - - - - - - - -
22/08:30pm - SW 15 18 1010.4 - - - - - - - - -
22/08:00pm - SW 15 19 1010.3 - - - - - - - - -
22/07:30pm - SW 16 19 1010.0 - - - - - - - - -
22/07:00pm - SW 17 21 1009.5 - - - - - - - - -
22/06:30pm - SW 18 22 1009.2 - - - - - - - - -
22/06:00pm - SW 18 23 1008.7 - - - - - - - - -
22/05:30pm - SW 17 21 1008.3 - - - - - - - - -
22/05:00pm - SW 16 20 1008.2 - - - - - - - - -
22/04:30pm - SW 17 22 1008.0 - - - - - - - - -
22/04:00pm - SW 18 22 1007.9 - - - - - - - - -
22/03:30pm - SW 16 20 1007.9 - - - - - - - - -
22/03:00pm - SW 15 17 1008.0 - - - - - - - - -
22/02:30pm - SW 13 16 1008.3 - - - - - - - - -
22/02:00pm - WSW 11 15 1008.5 - - - - - - - - -
22/01:30pm - WSW 11 14 1008.7 - - - - - - - - -
22/01:00pm - WSW 11 13 1009.1 - - - - - - - - -
22/12:30pm - WSW 11 14 1009.4 - - - - - - - - -
22/12:00pm - WSW 11 13 1009.9 - - - - - - - - -
22/11:30am - SW 11 13 1010.1 - - - - - - - - -
22/11:00am - SW 12 14 1010.4 - - - - - - - - -
22/10:30am - SW 13 17 1010.7 - - - - - - - - -
22/10:00am - SSW 15 19 1010.8 - - - - - - - - -
22/09:30am - SW 14 17 1011.0 - - - - - - - - -
22/09:00am - SW 13 16 1011.1 - - - - - - - - -
22/08:30am - SW 12 14 1010.8 - - - - - - - - -
22/08:00am - WSW 11 14 1010.6 - - - - - - - - -
22/07:30am - WSW 10 12 1010.6 - - - - - - - - -
22/07:00am - WSW 9 11 1010.3 - - - - - - - - -
22/06:30am - WSW 9 11 1010.1 - - - - - - - - -
22/06:00am - NW 7 8 1009.8 - - - - - - - - -
22/05:30am - NW 7 7 1009.6 - - - - - - - - -
22/05:00am - WNW 9 11 1009.5 - - - - - - - - -
22/04:30am - WNW 7 9 1009.3 - - - - - - - - -
22/04:00am - W 10 14 1009.1 - - - - - - - - -
22/03:30am - WNW 10 12 1009.1 - - - - - - - - -
22/03:00am - WNW 10 12 1009.1 - - - - - - - - -
22/02:30am - WNW 10 13 1009.3 - - - - - - - - -
22/02:00am - WNW 11 13 1009.5 - - - - - - - - -
22/01:30am - WNW 10 13 1009.7 - - - - - - - - -
22/01:00am - WNW 10 12 1009.9 - - - - - - - - -
22/12:30am - NW 10 12 1010.2 - - - - - - - - -
22/12:00am - NW 9 11 1010.4 - - - - - - - - -
 
Date/Time
WST
Temp
°C
Wind Pressure Rain since
9am
mm
Weather Cloud Vis
km
Sea
Height
m
Swell
Dir  Spd
kts
Gust
kts
hPa Trend Height
m
Period
s
Dir
21/11:30pm - NNW 7 8 1010.6 - - - - - - - - -
21/11:00pm - NNW 6 7 1010.7 - - - - - - - - -
21/10:30pm - NNW 6 7 1010.8 - - - - - - - - -
21/10:00pm - NNW 6 7 1010.8 - - - - - - - - -
21/09:30pm - NNW 6 7 1010.9 - - - - - - - - -
21/09:00pm - NNW 5 6 1010.8 - - - - - - - - -
21/08:30pm - NNW 4 5 1010.6 - - - - - - - - -
21/08:00pm - NNW 5 5 1010.5 - - - - - - - - -
21/07:30pm - N 4 5 1010.3 - - - - - - - - -
21/07:00pm - CALM 0 1 1010.1 - - - - - - - - -
21/06:30pm - CALM 0 2 1009.8 - - - - - - - - -
21/06:00pm - CALM 0 2 1009.5 - - - - - - - - -
21/05:30pm - ENE 1 3 1009.3 - - - - - - - - -
21/05:00pm - NW 3 4 1009.1 - - - - - - - - -

Other Formats:

Comma delimited format used in spreadsheet applications
http://www.bom.gov.au/fwo/IDW60701/IDW60701.94210.axf

JavaScript Object Notation format (JSON) in row-major order
http://www.bom.gov.au/fwo/IDW60701/IDW60701.94210.json